Aviation Digital Data Service (ADDS)

Output produced by METARs form (1330 UTC 31 October 2014)
found at http://aviationweather.gov/adds/metars/
 
KCLT 311321Z 3113/0112 01006KT P6SM SCT017 
     FM311430 01006KT P6SM SCT060 BKN110 
     FM010200 35003KT P6SM -RA OVC060 
     FM010500 31008KT P6SM -RA OVC045 
     FM010800 32009KT 6SM -RA OVC028